createdAt,value
2023-04-19T00:00:21.252Z,18.57
2023-04-19T00:02:49.698Z,18.53
2023-04-19T00:05:18.828Z,16.80
2023-04-19T00:07:47.110Z,15.73
2023-04-19T00:10:14.580Z,20.93
2023-04-19T00:12:41.902Z,20.80
2023-04-19T00:15:10.198Z,19.80
2023-04-19T00:17:37.714Z,18.23
2023-04-19T00:20:06.613Z,16.07
2023-04-19T00:22:35.310Z,16.07
2023-04-19T00:25:02.825Z,17.37
2023-04-19T00:27:30.536Z,14.27
2023-04-19T00:29:58.265Z,17.30
2023-04-19T00:32:26.086Z,16.57
2023-04-19T00:34:53.443Z,14.67
2023-04-19T00:37:22.680Z,15.30
2023-04-19T00:39:51.352Z,11.43
2023-04-19T00:42:18.728Z,17.20
2023-04-19T00:44:47.660Z,16.77
2023-04-19T00:47:16.681Z,15.00
2023-04-19T00:49:46.050Z,12.63
2023-04-19T00:52:14.133Z,14.93
2023-04-19T00:54:43.360Z,13.90
2023-04-19T00:57:12.241Z,15.97
2023-04-19T00:59:39.842Z,14.37
2023-04-19T01:02:08.376Z,17.30
2023-04-19T01:04:36.040Z,13.13
2023-04-19T01:07:03.773Z,15.83
2023-04-19T01:09:31.224Z,17.13
2023-04-19T01:11:58.713Z,15.30
2023-04-19T01:14:27.383Z,16.40
2023-04-19T01:16:54.739Z,17.27
2023-04-19T01:19:23.054Z,15.00
2023-04-19T01:21:52.801Z,14.47
2023-04-19T01:24:21.709Z,15.90
2023-04-19T01:26:50.674Z,17.27
2023-04-19T01:29:18.672Z,14.67
2023-04-19T01:31:51.292Z,13.13
2023-04-19T01:34:18.773Z,13.10
2023-04-19T01:36:46.248Z,16.10
2023-04-19T01:39:14.031Z,14.70
2023-04-19T01:41:42.742Z,14.70
2023-04-19T01:44:10.663Z,15.93
2023-04-19T01:46:38.899Z,11.50
2023-04-19T01:49:06.627Z,11.93
2023-04-19T01:51:33.982Z,11.20
2023-04-19T01:54:02.560Z,10.63
2023-04-19T01:56:30.215Z,13.73
2023-04-19T01:58:59.275Z,11.40
2023-04-19T02:01:26.752Z,12.40
2023-04-19T02:03:54.632Z,14.13
2023-04-19T02:06:22.092Z,17.67
2023-04-19T02:08:51.298Z,13.00
2023-04-19T02:11:18.818Z,14.73
2023-04-19T02:13:46.198Z,12.30
2023-04-19T02:16:15.189Z,13.70
2023-04-19T02:18:43.239Z,15.07
2023-04-19T02:21:10.800Z,10.43
2023-04-19T02:23:38.213Z,13.70
2023-04-19T02:26:05.723Z,15.77
2023-04-19T02:28:33.465Z,11.17
2023-04-19T02:31:05.260Z,13.47
2023-04-19T02:33:36.980Z,13.40
2023-04-19T02:36:04.554Z,14.57
2023-04-19T02:38:31.891Z,13.27
2023-04-19T02:41:00.726Z,13.63
2023-04-19T02:43:28.150Z,13.87
2023-04-19T02:45:55.814Z,11.23
2023-04-19T02:48:23.156Z,15.23
2023-04-19T02:50:51.985Z,14.40
2023-04-19T02:53:20.042Z,11.97
2023-04-19T02:55:48.917Z,13.93
2023-04-19T02:58:19.433Z,12.43
2023-04-19T03:01:12.694Z,11.83
2023-04-19T03:03:40.255Z,15.00
2023-04-19T03:06:09.276Z,14.67
2023-04-19T03:08:37.359Z,12.40
2023-04-19T03:11:04.869Z,17.67
2023-04-19T03:13:32.225Z,19.93
2023-04-19T03:15:59.710Z,17.70
2023-04-19T03:18:27.317Z,15.67
2023-04-19T03:20:57.630Z,13.60
2023-04-19T03:23:30.140Z,14.23
2023-04-19T03:26:00.301Z,17.17
2023-04-19T03:28:37.860Z,12.63
2023-04-19T03:31:28.443Z,14.23
2023-04-19T03:33:55.878Z,13.30
2023-04-19T03:36:29.441Z,16.97
2023-04-19T03:38:59.128Z,17.30
2023-04-19T03:41:27.981Z,18.53
2023-04-19T03:44:04.151Z,16.70
2023-04-19T03:46:32.351Z,17.67
2023-04-19T03:49:00.458Z,17.03
2023-04-19T03:51:29.103Z,16.70
2023-04-19T03:53:56.476Z,22.20
2023-04-19T03:56:25.519Z,22.77
2023-04-19T03:58:53.644Z,24.57
2023-04-19T04:01:21.214Z,21.50
2023-04-19T04:03:50.080Z,19.63
2023-04-19T04:06:18.911Z,15.30
2023-04-19T04:08:46.760Z,16.00
2023-04-19T04:11:14.180Z,20.87
2023-04-19T04:13:43.937Z,17.53
2023-04-19T04:16:16.162Z,20.00
2023-04-19T04:18:44.059Z,15.20
2023-04-19T04:21:14.865Z,13.50
2023-04-19T04:23:47.374Z,13.67
2023-04-19T04:26:25.169Z,22.40
2023-04-19T04:29:01.793Z,11.93
2023-04-19T04:31:29.734Z,17.27
2023-04-19T04:33:57.284Z,14.70
2023-04-19T04:36:26.195Z,16.73
2023-04-19T04:38:55.509Z,16.90
2023-04-19T04:41:22.970Z,13.57
2023-04-19T04:44:04.577Z,15.83
2023-04-19T04:46:40.613Z,13.87
2023-04-19T04:49:08.792Z,16.20
2023-04-19T04:51:37.220Z,15.87
2023-04-19T04:54:06.434Z,13.47
2023-04-19T04:56:34.721Z,11.53
2023-04-19T04:59:02.405Z,14.53
2023-04-19T05:01:34.842Z,15.30
2023-04-19T05:04:04.257Z,15.13
2023-04-19T05:06:31.947Z,17.97
2023-04-19T05:08:59.782Z,11.77
2023-04-19T05:11:35.379Z,12.33
2023-04-19T05:14:03.463Z,18.03
2023-04-19T05:16:32.432Z,14.47
2023-04-19T05:19:00.368Z,14.13
2023-04-19T05:21:33.893Z,12.80
2023-04-19T05:24:04.180Z,10.00
2023-04-19T05:26:32.889Z,8.57
2023-04-19T05:29:00.862Z,12.97
2023-04-19T05:31:38.620Z,11.07
2023-04-19T05:34:12.499Z,13.37
2023-04-19T05:36:41.332Z,12.60
2023-04-19T05:39:09.404Z,10.77
2023-04-19T05:41:36.811Z,11.93
2023-04-19T05:44:04.194Z,7.73
2023-04-19T05:46:31.631Z,9.30
2023-04-19T05:48:59.786Z,10.00
2023-04-19T05:51:47.119Z,13.60
2023-04-19T05:54:36.090Z,5.27
2023-04-19T05:57:05.021Z,9.13
2023-04-19T05:59:32.522Z,7.83
2023-04-19T06:02:01.298Z,8.77
2023-04-19T06:04:29.112Z,8.17
2023-04-19T06:06:58.261Z,8.70
2023-04-19T06:09:25.733Z,10.20
2023-04-19T06:11:54.640Z,7.20
2023-04-19T06:14:22.324Z,7.80
2023-04-19T06:16:50.460Z,6.87
2023-04-19T06:19:17.925Z,5.90
2023-04-19T06:21:45.968Z,8.10
2023-04-19T06:24:14.824Z,4.93
2023-04-19T06:26:42.322Z,6.03
2023-04-19T06:29:09.649Z,5.17
2023-04-19T06:31:37.337Z,7.63
2023-04-19T06:34:04.684Z,4.93
2023-04-19T06:36:32.113Z,6.07
2023-04-19T06:38:59.601Z,4.80
2023-04-19T06:41:28.277Z,5.17
2023-04-19T06:43:55.621Z,7.47
2023-04-19T06:46:23.105Z,7.60
2023-04-19T06:48:50.681Z,6.90
2023-04-19T06:51:18.028Z,4.97
2023-04-19T06:53:45.892Z,6.57
2023-04-19T06:56:13.614Z,7.63
2023-04-19T06:58:42.280Z,6.87
2023-04-19T07:01:09.653Z,4.87
2023-04-19T07:03:37.290Z,5.43
2023-04-19T07:06:05.187Z,3.93
2023-04-19T07:08:46.491Z,4.77
2023-04-19T07:11:17.064Z,6.27
2023-04-19T07:13:45.769Z,5.03
2023-04-19T07:16:14.551Z,4.10
2023-04-19T07:18:41.922Z,2.37
2023-04-19T07:21:09.247Z,3.40
2023-04-19T07:23:36.605Z,9.20
2023-04-19T07:26:04.050Z,3.40
2023-04-19T07:28:31.610Z,4.80
2023-04-19T07:31:00.889Z,3.87
2023-04-19T07:33:28.934Z,5.57
2023-04-19T07:35:56.649Z,2.93
2023-04-19T07:38:24.757Z,3.23
2023-04-19T07:40:52.198Z,5.20
2023-04-19T07:43:19.547Z,3.37
2023-04-19T07:45:46.926Z,3.63
2023-04-19T07:48:15.594Z,3.13
2023-04-19T07:50:42.989Z,4.57
2023-04-19T07:53:10.732Z,3.77
2023-04-19T07:55:38.203Z,2.20
2023-04-19T07:58:05.941Z,5.53
2023-04-19T08:00:34.818Z,2.03
2023-04-19T08:03:02.454Z,3.60
2023-04-19T08:05:32.117Z,2.97
2023-04-19T08:07:59.506Z,4.83
2023-04-19T08:10:28.744Z,4.30
2023-04-19T08:13:04.354Z,2.77
2023-04-19T08:18:04.935Z,3.33
2023-04-19T08:20:33.938Z,2.27
2023-04-19T08:23:10.435Z,4.37
2023-04-19T08:25:41.828Z,10.13
2023-04-19T08:28:09.232Z,2.43
2023-04-19T08:30:36.870Z,4.03
2023-04-19T08:33:04.360Z,3.00
2023-04-19T08:35:31.748Z,3.03
2023-04-19T08:38:02.011Z,2.73
2023-04-19T08:40:31.022Z,3.57
2023-04-19T08:42:58.710Z,6.37
2023-04-19T08:45:28.760Z,2.37
2023-04-19T08:48:01.191Z,4.67
2023-04-19T08:53:12.195Z,5.73
2023-04-19T08:56:06.978Z,3.13
2023-04-19T08:58:54.869Z,3.50
2023-04-19T09:01:33.858Z,4.60
2023-04-19T09:04:21.089Z,2.97
2023-04-19T09:06:50.044Z,4.53
2023-04-19T09:11:50.120Z,3.77
2023-04-19T09:14:18.269Z,3.70
2023-04-19T09:16:45.701Z,1.83
2023-04-19T09:19:23.172Z,3.93
2023-04-19T09:21:53.784Z,3.37
2023-04-19T09:25:04.561Z,6.03
2023-04-19T09:27:27.188Z,5.30
2023-04-19T09:29:55.294Z,3.23
2023-04-19T09:32:22.866Z,4.77
2023-04-19T09:34:54.001Z,5.37
2023-04-19T09:39:56.889Z,3.23
2023-04-19T09:42:47.403Z,6.07
2023-04-19T09:45:29.000Z,2.93
2023-04-19T09:48:01.765Z,2.93
2023-04-19T09:50:31.224Z,4.10
2023-04-19T09:52:59.835Z,4.30
2023-04-19T09:55:30.207Z,6.17
2023-04-19T09:58:00.936Z,3.70
2023-04-19T10:00:31.574Z,3.37
2023-04-19T10:03:04.434Z,5.50
2023-04-19T10:05:32.849Z,6.50
2023-04-19T10:08:02.341Z,6.23
2023-04-19T10:15:49.376Z,5.47
2023-04-19T10:18:20.113Z,4.07
2023-04-19T10:20:50.405Z,2.67
2023-04-19T10:23:18.601Z,2.67
2023-04-19T10:25:48.317Z,3.00
2023-04-19T10:28:16.335Z,3.93
2023-04-19T10:30:53.739Z,3.80
2023-04-19T10:33:25.497Z,4.83
2023-04-19T10:35:56.340Z,8.13
2023-04-19T10:38:36.704Z,7.67
2023-04-19T10:41:13.631Z,2.57
2023-04-19T10:43:45.541Z,3.83
2023-04-19T10:46:15.371Z,4.97
2023-04-19T10:48:53.701Z,3.70
2023-04-19T10:51:22.690Z,2.50
2023-04-19T10:53:51.215Z,3.00
2023-04-19T10:56:20.873Z,3.40
2023-04-19T10:59:08.199Z,2.47
2023-04-19T11:01:38.154Z,3.43
2023-04-19T11:04:06.015Z,4.03
2023-04-19T11:06:33.682Z,2.23
2023-04-19T11:09:02.896Z,3.37
2023-04-19T11:11:33.956Z,3.53
2023-04-19T11:14:02.803Z,3.30
2023-04-19T11:16:42.340Z,5.93
2023-04-19T11:19:15.960Z,3.60
2023-04-19T11:21:43.475Z,5.03
2023-04-19T11:24:10.921Z,3.40
2023-04-19T11:26:39.679Z,3.03
2023-04-19T11:29:07.095Z,4.17
2023-04-19T11:31:34.482Z,2.43
2023-04-19T11:34:01.852Z,3.07
2023-04-19T11:36:29.269Z,3.37
2023-04-19T11:38:56.578Z,4.00
2023-04-19T11:41:23.975Z,3.73
2023-04-19T11:43:53.051Z,3.13
2023-04-19T11:46:20.425Z,5.10
2023-04-19T11:48:52.796Z,4.30
2023-04-19T11:51:20.305Z,2.23
2023-04-19T11:53:47.988Z,2.77
2023-04-19T11:56:16.772Z,3.10
2023-04-19T11:58:45.343Z,3.53
2023-04-19T12:01:14.728Z,3.07
2023-04-19T12:03:43.283Z,4.67
2023-04-19T12:06:12.561Z,4.23
2023-04-19T12:08:40.830Z,4.77
2023-04-19T12:11:08.288Z,3.50
2023-04-19T12:13:36.397Z,4.67
2023-04-19T12:16:03.884Z,4.87
2023-04-19T12:18:45.101Z,3.53
2023-04-19T12:21:13.251Z,3.97
2023-04-19T12:23:40.996Z,2.57
2023-04-19T12:26:08.439Z,4.37
2023-04-19T12:28:35.845Z,2.83
2023-04-19T12:31:03.610Z,5.17
2023-04-19T12:33:31.055Z,3.23
2023-04-19T12:36:00.091Z,3.30
2023-04-19T12:38:27.515Z,2.80
2023-04-19T12:40:54.917Z,2.37
2023-04-19T12:43:22.355Z,3.73
2023-04-19T12:45:49.745Z,4.20
2023-04-19T12:48:17.178Z,4.50
2023-04-19T12:50:44.553Z,3.13
2023-04-19T12:53:13.302Z,4.07
2023-04-19T12:55:40.666Z,6.10
2023-04-19T12:58:08.056Z,4.30
2023-04-19T13:00:35.498Z,3.57
2023-04-19T13:03:03.532Z,5.07
2023-04-19T13:05:30.936Z,3.30
2023-04-19T13:07:58.666Z,4.63
2023-04-19T13:10:27.361Z,4.57
2023-04-19T13:12:54.911Z,5.87
2023-04-19T13:15:22.291Z,3.53
2023-04-19T13:17:49.829Z,3.23
2023-04-19T13:20:19.359Z,2.83
2023-04-19T13:22:46.714Z,4.17
2023-04-19T13:25:14.154Z,5.23
2023-04-19T13:27:43.101Z,4.23
2023-04-19T13:30:11.065Z,4.23
2023-04-19T13:32:38.714Z,6.47
2023-04-19T13:35:06.588Z,5.80
2023-04-19T13:37:33.931Z,4.43
2023-04-19T13:40:14.876Z,6.70
2023-04-19T13:42:46.512Z,4.43
2023-04-19T13:45:13.913Z,5.50
2023-04-19T13:47:41.320Z,3.50
2023-04-19T13:50:09.206Z,4.50
2023-04-19T13:52:36.616Z,5.97
2023-04-19T13:55:06.331Z,3.97
2023-04-19T13:57:33.681Z,4.40
2023-04-19T14:00:05.021Z,7.23
2023-04-19T14:02:34.548Z,7.03
2023-04-19T14:05:01.935Z,4.10
2023-04-19T14:07:29.330Z,5.27
2023-04-19T14:09:56.719Z,4.13
2023-04-19T14:12:26.292Z,3.63
2023-04-19T14:14:53.611Z,3.33
2023-04-19T14:17:22.290Z,5.97
2023-04-19T14:19:49.732Z,3.83
2023-04-19T14:22:17.238Z,4.17
2023-04-19T14:24:45.866Z,6.70
2023-04-19T14:27:13.218Z,5.43
2023-04-19T14:29:40.874Z,4.23
2023-04-19T14:32:24.025Z,4.87
2023-04-19T14:34:55.554Z,7.03
2023-04-19T14:37:23.526Z,4.17
2023-04-19T14:39:50.986Z,3.77
2023-04-19T14:42:20.128Z,2.70
2023-04-19T14:44:51.463Z,4.53
2023-04-19T14:47:18.826Z,3.40
2023-04-19T14:49:46.961Z,3.93
2023-04-19T14:52:16.191Z,3.83
2023-04-19T14:54:43.590Z,7.37
2023-04-19T14:57:12.044Z,4.53
2023-04-19T14:59:39.632Z,6.27
2023-04-19T15:02:07.033Z,7.40
2023-04-19T15:04:36.532Z,5.60
2023-04-19T15:07:06.306Z,4.53
2023-04-19T15:09:35.095Z,5.10
2023-04-19T15:12:02.761Z,5.70
2023-04-19T15:14:30.193Z,6.60
2023-04-19T15:16:57.560Z,5.13
2023-04-19T15:19:25.284Z,4.07
2023-04-19T15:21:52.783Z,6.53
2023-04-19T15:24:20.330Z,4.57
2023-04-19T15:26:49.266Z,2.73
2023-04-19T15:29:17.150Z,5.50
2023-04-19T15:31:44.834Z,4.77
2023-04-19T15:34:12.249Z,5.07
2023-04-19T15:36:40.787Z,6.03
2023-04-19T15:39:09.106Z,4.87
2023-04-19T15:41:36.522Z,5.23
2023-04-19T15:44:05.358Z,3.60
2023-04-19T15:46:32.810Z,8.27
2023-04-19T15:49:00.248Z,3.87
2023-04-19T15:51:28.343Z,3.23
2023-04-19T15:53:55.983Z,3.37
2023-04-19T15:56:23.450Z,4.07
2023-04-19T15:58:50.782Z,3.43
2023-04-19T16:01:19.677Z,4.00
2023-04-19T16:03:47.278Z,3.90
2023-04-19T16:06:14.871Z,4.57
2023-04-19T16:08:42.233Z,3.70
2023-04-19T16:11:09.977Z,3.53
2023-04-19T16:13:37.501Z,3.93
2023-04-19T16:16:04.965Z,3.43
2023-04-19T16:18:33.707Z,3.07
2023-04-19T16:21:01.244Z,3.93
2023-04-19T16:23:28.627Z,4.20
2023-04-19T16:25:56.973Z,3.33
2023-04-19T16:28:24.426Z,5.80
2023-04-19T16:30:51.752Z,3.80
2023-04-19T16:33:19.538Z,3.67
2023-04-19T16:35:48.218Z,4.57
2023-04-19T16:38:15.672Z,7.20
2023-04-19T16:40:44.459Z,4.70
2023-04-19T16:43:11.803Z,6.17
2023-04-19T16:45:39.258Z,6.57
2023-04-19T16:48:06.810Z,4.27
2023-04-19T16:50:34.220Z,4.43
2023-04-19T16:53:02.907Z,4.13
2023-04-19T16:55:30.412Z,5.73
2023-04-19T16:57:57.820Z,5.70
2023-04-19T17:00:25.282Z,3.93
2023-04-19T17:02:53.199Z,4.20
2023-04-19T17:05:20.966Z,6.03
2023-04-19T17:07:48.354Z,4.37
2023-04-19T17:10:18.271Z,5.20
2023-04-19T17:12:45.848Z,5.33
2023-04-19T17:15:13.411Z,7.63
2023-04-19T17:17:41.500Z,4.30
2023-04-19T17:20:10.596Z,5.27
2023-04-19T17:22:38.053Z,7.53
2023-04-19T17:25:05.901Z,3.93
2023-04-19T17:27:34.751Z,4.07
2023-04-19T17:30:02.124Z,4.20
2023-04-19T17:32:29.596Z,5.13
2023-04-19T17:34:57.243Z,4.83
2023-04-19T17:37:24.759Z,3.87
2023-04-19T17:39:52.238Z,4.63
2023-04-19T17:42:19.602Z,3.57
2023-04-19T17:44:48.433Z,4.83
2023-04-19T17:47:15.782Z,4.47
2023-04-19T17:49:45.482Z,4.60
2023-04-19T17:52:12.864Z,5.10
2023-04-19T17:54:40.199Z,5.07
2023-04-19T17:57:07.694Z,5.83
2023-04-19T17:59:35.059Z,5.53
2023-04-19T18:02:04.035Z,6.90
2023-04-19T18:04:31.658Z,5.63
2023-04-19T18:06:59.438Z,4.83
2023-04-19T18:09:27.022Z,6.27
2023-04-19T18:11:55.044Z,6.63
2023-04-19T18:14:22.353Z,7.37
2023-04-19T18:16:49.795Z,5.50
2023-04-19T18:19:18.606Z,5.20
2023-04-19T18:21:46.743Z,8.73
2023-04-19T18:24:15.345Z,6.27
2023-04-19T18:26:43.613Z,4.57
2023-04-19T18:29:12.192Z,6.83
2023-04-19T18:31:39.577Z,5.17
2023-04-19T18:34:07.077Z,6.60
2023-04-19T18:36:35.755Z,4.87
2023-04-19T18:39:03.425Z,5.13
2023-04-19T18:41:30.814Z,4.83
2023-04-19T18:46:29.324Z,6.37
2023-04-19T18:48:56.804Z,7.07
2023-04-19T18:51:24.206Z,7.87
2023-04-19T18:53:52.888Z,6.43
2023-04-19T18:56:20.361Z,7.07
2023-04-19T18:58:49.006Z,6.63
2023-04-19T19:01:16.520Z,6.00
2023-04-19T19:06:14.657Z,5.37
2023-04-19T19:08:42.414Z,6.10
2023-04-19T19:11:29.148Z,6.70
2023-04-19T19:13:58.480Z,6.97
2023-04-19T19:16:26.534Z,7.87
2023-04-19T19:18:55.745Z,6.27
2023-04-19T19:21:23.087Z,7.20
2023-04-19T19:23:52.471Z,6.83
2023-04-19T19:26:21.321Z,11.40
2023-04-19T19:28:48.654Z,6.83
2023-04-19T19:31:16.444Z,5.93
2023-04-19T19:33:50.166Z,5.77
2023-04-19T19:36:21.068Z,5.57
2023-04-19T19:38:48.404Z,7.40
2023-04-19T19:43:47.526Z,4.83
2023-04-19T19:46:15.325Z,6.00
2023-04-19T19:48:42.986Z,7.37
2023-04-19T19:51:41.714Z,5.37
2023-04-19T19:53:58.007Z,4.47
2023-04-19T19:56:25.580Z,4.77
2023-04-19T19:58:54.236Z,5.87
2023-04-19T20:01:22.800Z,7.90
2023-04-19T20:03:51.290Z,5.87
2023-04-19T20:07:07.663Z,6.07
2023-04-19T20:09:06.315Z,5.17
2023-04-19T20:11:33.642Z,6.30
2023-04-19T20:14:02.607Z,6.20
2023-04-19T20:16:30.169Z,5.87
2023-04-19T20:18:59.339Z,5.57
2023-04-19T20:21:26.649Z,5.17
2023-04-19T20:23:54.005Z,5.87
2023-04-19T20:26:21.394Z,6.43
2023-04-19T20:28:49.262Z,5.83
2023-04-19T20:31:17.918Z,5.70
2023-04-19T20:33:46.036Z,5.20
2023-04-19T20:36:13.834Z,5.70
2023-04-19T20:38:41.258Z,4.80
2023-04-19T20:41:08.615Z,5.33
2023-04-19T20:43:36.394Z,5.63
2023-04-19T20:46:03.979Z,6.40
2023-04-19T20:48:33.176Z,5.73
2023-04-19T20:51:00.735Z,5.67
2023-04-19T20:53:28.125Z,4.60
2023-04-19T20:55:55.591Z,6.83
2023-04-19T20:58:23.055Z,4.50
2023-04-19T21:00:50.731Z,4.73
2023-04-19T21:03:18.508Z,7.67
2023-04-19T21:05:47.259Z,5.40
2023-04-19T21:08:15.987Z,5.20
2023-04-19T21:10:43.324Z,4.80
2023-04-19T21:13:10.688Z,4.60
2023-04-19T21:15:38.452Z,6.10
2023-04-19T21:18:06.041Z,7.47
2023-04-19T21:20:33.846Z,8.30
2023-04-19T21:23:03.355Z,6.13
2023-04-19T21:25:30.781Z,9.13
2023-04-19T21:27:58.290Z,6.63
2023-04-19T21:30:26.027Z,6.13
2023-04-19T21:32:53.768Z,7.40
2023-04-19T21:35:21.141Z,7.00
2023-04-19T21:37:48.755Z,7.00
2023-04-19T21:40:17.517Z,6.30
2023-04-19T21:42:44.876Z,7.17
2023-04-19T21:45:12.409Z,6.00
2023-04-19T21:47:39.797Z,5.40
2023-04-19T21:50:08.067Z,7.97
2023-04-19T21:52:35.622Z,5.97
2023-04-19T21:55:03.154Z,5.93
2023-04-19T21:57:32.606Z,5.97
2023-04-19T22:00:00.481Z,5.13
2023-04-19T22:02:27.974Z,5.47
2023-04-19T22:04:55.416Z,5.83
2023-04-19T22:07:23.821Z,6.40
2023-04-19T22:09:52.188Z,6.43
2023-04-19T22:12:19.713Z,6.07
2023-04-19T22:14:48.486Z,5.73
2023-04-19T22:17:18.437Z,6.03
2023-04-19T22:19:46.178Z,6.50
2023-04-19T22:22:13.622Z,7.30
2023-04-19T22:24:53.817Z,5.37
2023-04-19T22:27:23.963Z,6.77
2023-04-19T22:29:52.682Z,4.80
2023-04-19T22:32:20.155Z,5.93
2023-04-19T22:34:47.571Z,6.63
2023-04-19T22:37:14.975Z,9.30
2023-04-19T22:39:42.398Z,7.17
2023-04-19T22:42:10.022Z,8.60
2023-04-19T22:44:37.395Z,7.37
2023-04-19T22:47:06.093Z,6.57
2023-04-19T22:49:33.413Z,7.23
2023-04-19T22:52:00.820Z,6.03
2023-04-19T22:54:28.135Z,6.50
2023-04-19T22:56:55.638Z,6.70
2023-04-19T22:59:22.951Z,6.20
2023-04-19T23:01:50.901Z,5.13
2023-04-19T23:04:19.889Z,6.37
2023-04-19T23:06:48.708Z,5.20
2023-04-19T23:09:16.253Z,4.87
2023-04-19T23:11:44.812Z,5.57
2023-04-19T23:14:12.775Z,6.57
2023-04-19T23:16:40.409Z,5.63
2023-04-19T23:19:08.009Z,4.90
2023-04-19T23:21:37.269Z,4.87
2023-04-19T23:24:04.854Z,4.73
2023-04-19T23:26:32.251Z,5.57
2023-04-19T23:28:59.573Z,5.93
2023-04-19T23:31:26.926Z,6.90
2023-04-19T23:33:54.282Z,5.77
2023-04-19T23:36:21.758Z,4.80
2023-04-19T23:38:50.614Z,4.77
2023-04-19T23:41:17.966Z,4.57
2023-04-19T23:43:46.315Z,6.20
2023-04-19T23:46:13.853Z,5.67
2023-04-19T23:48:41.243Z,3.63
2023-04-19T23:51:08.566Z,5.37
2023-04-19T23:53:35.936Z,5.40
2023-04-19T23:56:04.732Z,3.37
2023-04-19T23:58:32.157Z,3.33
